Time;durP1;ratioP1;P1;durP2;ratioP2;P2;SDS_P1;SDS_P2;PMS_P1;PMS_P2;Temp;Humidity;BMP_temperature;BMP_pressure;BME280_temperature;BME280_humidity;BME280_pressure;Samples;Min_cycle;Max_cycle;Signal;HPM_P1;HPM_P2
2020/12/24 00:02:02;;;;;;;21.27;11.25;;;154.00;2252.80;;;;;;5097202;28;20031;-67
2020/12/24 00:04:28;;;;;;;25.48;13.50;;;154.00;2252.80;;;;;;5097305;28;20028;-67
2020/12/24 00:06:53;;;;;;;25.10;13.60;;;153.90;2252.80;;;;;;5097576;28;20031;-66
2020/12/24 00:09:19;;;;;;;31.58;14.10;;;153.80;2252.80;;;;;;5096829;28;20032;-67
2020/12/24 00:11:45;;;;;;;23.83;10.80;;;153.90;2252.80;;;;;;5097535;28;20024;-67
2020/12/24 00:14:11;;;;;;;24.15;10.90;;;153.80;2252.80;;;;;;5097933;28;20036;-66
2020/12/24 00:16:37;;;;;;;22.05;9.98;;;153.80;2252.80;;;;;;5097117;28;20023;-68
2020/12/24 00:19:02;;;;;;;28.17;13.60;;;153.80;2252.80;;;;;;5097737;28;20028;-67
2020/12/24 00:21:28;;;;;;;24.02;12.25;;;153.80;2252.80;;;;;;5097543;28;20409;-68
2020/12/24 00:23:54;;;;;;;26.02;11.07;;;153.90;2252.80;;;;;;5097910;28;20333;-67
2020/12/24 00:26:20;;;;;;;18.17;10.13;;;153.90;2252.80;;;;;;5097021;28;20024;-67
2020/12/24 00:28:46;;;;;;;21.70;10.15;;;153.80;2252.80;;;;;;5097197;28;20024;-67
2020/12/24 00:31:12;;;;;;;19.00;10.30;;;153.80;2252.80;;;;;;5096761;28;20405;-66
2020/12/24 00:33:38;;;;;;;18.10;8.90;;;153.80;2252.80;;;;;;5097447;28;20039;-66
2020/12/24 00:36:03;;;;;;;17.50;10.00;;;153.70;2252.80;;;;;;5097159;28;20027;-67
2020/12/24 00:38:29;;;;;;;22.33;10.25;;;153.70;2252.80;;;;;;5097440;28;20368;-67
2020/12/24 00:40:55;;;;;;;22.85;11.05;;;153.90;2252.80;;;;;;5097630;28;20024;-66
2020/12/24 00:43:22;;;;;;;19.75;10.82;;;154.00;2252.80;;;;;;5097432;28;20047;-68
2020/12/24 00:45:48;;;;;;;25.73;12.05;;;154.10;2252.80;;;;;;5097068;28;20082;-68
2020/12/24 00:48:13;;;;;;;25.75;13.50;;;154.00;2252.80;;;;;;5097603;28;20327;-67
2020/12/24 00:50:39;;;;;;;23.75;12.90;;;154.20;2252.80;;;;;;5097568;28;20290;-67
2020/12/24 00:53:05;;;;;;;24.48;11.93;;;154.30;2252.80;;;;;;5096957;28;20086;-67
2020/12/24 00:55:31;;;;;;;22.08;12.35;;;154.40;2252.80;;;;;;5097278;28;20027;-67
2020/12/24 00:57:57;;;;;;;24.05;12.80;;;154.40;2252.80;;;;;;5097249;28;20042;-68
2020/12/24 01:00:22;;;;;;;21.10;11.43;;;154.40;2252.80;;;;;;5096963;28;20031;-68
2020/12/24 01:02:48;;;;;;;23.27;13.50;;;154.40;2252.80;;;;;;5096924;28;20035;-66
2020/12/24 01:05:14;;;;;;;26.55;12.85;;;154.30;2252.80;;;;;;5097161;28;20024;-66
2020/12/24 01:07:40;;;;;;;20.20;11.18;;;154.40;2252.80;;;;;;5096846;28;20035;-68
2020/12/24 01:10:07;;;;;;;16.65;9.60;;;154.40;2252.80;;;;;;5097131;28;20024;-68
2020/12/24 01:12:33;;;;;;;18.77;10.27;;;154.30;2252.80;;;;;;5097038;28;20020;-66
2020/12/24 01:15:00;;;;;;;17.20;9.10;;;154.20;2252.80;;;;;;5097133;28;20061;-67
2020/12/24 01:17:26;;;;;;;15.18;8.85;;;154.20;2252.80;;;;;;5096752;28;20024;-67
2020/12/24 01:19:52;;;;;;;16.55;9.25;;;154.20;2252.80;;;;;;5097325;28;20020;-66
2020/12/24 01:22:18;;;;;;;19.60;10.10;;;154.00;2252.80;;;;;;5096673;28;20031;-67
2020/12/24 01:24:44;;;;;;;21.58;10.70;;;153.90;2252.80;;;;;;5096764;28;20073;-66
2020/12/24 01:27:10;;;;;;;18.02;9.57;;;154.00;2252.80;;;;;;5096569;28;20024;-66
2020/12/24 01:29:35;;;;;;;14.65;9.35;;;154.00;2252.80;;;;;;5096944;28;20024;-68
2020/12/24 01:32:02;;;;;;;18.10;8.73;;;153.90;2252.80;;;;;;5096704;28;20437;-66
2020/12/24 01:34:28;;;;;;;16.73;9.40;;;153.90;2252.80;;;;;;5096829;28;20031;-68
2020/12/24 01:36:54;;;;;;;24.33;10.25;;;153.70;2252.80;;;;;;5097146;28;20054;-66
2020/12/24 01:39:20;;;;;;;20.17;10.15;;;153.60;2252.80;;;;;;5096615;28;20421;-66
2020/12/24 01:41:49;;;;;;;22.58;13.50;;;153.70;2252.80;;;;;;5096564;28;20024;-67
2020/12/24 01:44:14;;;;;;;27.73;12.98;;;154.00;2252.80;;;;;;5096821;28;20031;-67
2020/12/24 01:46:40;;;;;;;17.73;9.40;;;154.20;2252.80;;;;;;5096223;28;20028;-67
2020/12/24 01:49:06;;;;;;;19.45;9.73;;;154.10;2252.80;;;;;;5096479;28;20307;-68
2020/12/24 01:51:34;;;;;;;19.70;10.65;;;154.00;2252.80;;;;;;5096441;28;20106;-66
2020/12/24 01:54:00;;;;;;;15.77;10.23;;;154.20;2252.80;;;;;;5096360;28;20333;-66
2020/12/24 01:56:26;;;;;;;23.02;12.43;;;154.20;2252.80;;;;;;5097094;28;20114;-67
2020/12/24 01:58:54;;;;;;;18.70;11.38;;;154.20;2252.80;;;;;;5100344;28;20024;-67
2020/12/24 02:01:21;;;;;;;19.58;11.60;;;154.20;2252.80;;;;;;5099949;28;20123;-68
2020/12/24 02:03:47;;;;;;;17.67;10.52;;;154.20;2252.80;;;;;;5099654;28;20509;-68
2020/12/24 02:06:14;;;;;;;22.00;11.90;;;154.20;2252.80;;;;;;5099872;28;20031;-68
2020/12/24 02:08:40;;;;;;;23.15;11.88;;;154.10;2252.80;;;;;;5099805;28;20098;-67
2020/12/24 02:11:09;;;;;;;19.77;11.25;;;154.20;2252.80;;;;;;5099408;28;20478;-69
2020/12/24 02:13:35;;;;;;;19.48;9.85;;;154.10;2252.80;;;;;;5099988;28;20027;-67
2020/12/24 02:16:01;;;;;;;18.83;10.13;;;154.00;2252.80;;;;;;5099945;28;20032;-67
2020/12/24 02:18:27;;;;;;;20.42;10.10;;;154.20;2252.80;;;;;;5099900;28;20019;-67
2020/12/24 02:20:52;;;;;;;23.63;12.90;;;154.00;2252.80;;;;;;5100141;28;20028;-66
2020/12/24 02:23:18;;;;;;;18.60;11.15;;;154.10;2252.80;;;;;;5099006;28;20509;-66
2020/12/24 02:25:44;;;;;;;21.75;12.18;;;154.20;2252.80;;;;;;5100058;28;20076;-68
2020/12/24 02:28:10;;;;;;;22.75;12.15;;;154.20;2252.80;;;;;;5099127;28;20027;-67
2020/12/24 02:30:37;;;;;;;32.40;12.93;;;154.40;2252.80;;;;;;5099408;28;20035;-67
2020/12/24 02:33:04;;;;;;;20.88;11.55;;;154.40;2252.80;;;;;;5099842;28;20056;-66
2020/12/24 02:35:30;;;;;;;20.83;11.57;;;154.40;2252.80;;;;;;5099575;28;20024;-68
2020/12/24 02:37:56;;;;;;;19.92;11.48;;;154.40;2252.80;;;;;;5099234;28;20470;-67
2020/12/24 02:40:22;;;;;;;21.38;10.30;;;154.30;2252.80;;;;;;5099495;28;20024;-66
2020/12/24 02:42:47;;;;;;;18.92;10.00;;;154.30;2252.80;;;;;;5099398;28;20104;-67
2020/12/24 02:45:13;;;;;;;18.10;10.38;;;154.20;2252.80;;;;;;5099139;28;20032;-67
2020/12/24 02:47:39;;;;;;;18.45;9.65;;;154.20;2252.80;;;;;;5099641;28;20081;-68
2020/12/24 02:50:08;;;;;;;18.63;9.90;;;154.20;2252.80;;;;;;5099031;28;20024;-67
2020/12/24 02:52:34;;;;;;;16.95;9.43;;;154.10;2252.80;;;;;;5098902;28;20031;-66
2020/12/24 02:55:01;;;;;;;14.32;9.10;;;154.20;2252.80;;;;;;5099176;28;20028;-67
2020/12/24 02:57:27;;;;;;;17.30;9.85;;;154.10;2252.80;;;;;;5099463;28;20052;-66
2020/12/24 02:59:53;;;;;;;16.90;10.23;;;154.20;2252.80;;;;;;5098845;28;20063;-66
2020/12/24 03:02:19;;;;;;;23.00;9.40;;;154.10;2252.80;;;;;;5098805;28;20067;-67
2020/12/24 03:04:44;;;;;;;19.60;8.90;;;153.90;2252.80;;;;;;5098986;28;20052;-68
2020/12/24 03:07:10;;;;;;;18.92;8.85;;;153.90;2252.80;;;;;;5098289;28;20069;-66
2020/12/24 03:09:36;;;;;;;15.60;8.20;;;153.70;2252.80;;;;;;5098671;28;20471;-67
2020/12/24 03:12:02;;;;;;;15.00;8.65;;;153.60;2252.80;;;;;;5098515;28;20068;-67
2020/12/24 03:14:28;;;;;;;15.60;7.97;;;128.80;2252.80;;;;;;5098516;28;20067;-67
2020/12/24 03:16:54;;;;;;;13.30;8.63;;;128.80;2252.80;;;;;;5099057;28;20078;-66
2020/12/24 03:19:19;;;;;;;14.50;7.80;;;128.70;2252.80;;;;;;5098461;28;20035;-67
2020/12/24 03:21:45;;;;;;;17.75;8.13;;;128.60;2252.80;;;;;;5098680;28;20024;-67
2020/12/24 03:24:11;;;;;;;12.43;7.13;;;128.60;2252.80;;;;;;5098126;28;20179;-69
2020/12/24 03:26:37;;;;;;;17.65;8.60;;;128.70;2252.80;;;;;;5098051;28;20020;-67
2020/12/24 03:29:02;;;;;;;18.95;8.55;;;128.70;2252.80;;;;;;5098559;28;20410;-66
2020/12/24 03:31:28;;;;;;;15.35;8.75;;;128.70;2252.80;;;;;;5098257;28;20052;-65
2020/12/24 03:33:55;;;;;;;15.90;8.68;;;128.70;2252.80;;;;;;5097914;28;20087;-70
2020/12/24 03:36:22;;;;;;;17.75;8.57;;;128.60;2252.80;;;;;;5098188;28;20406;-66
2020/12/24 03:38:48;;;;;;;14.65;8.82;;;128.70;2252.80;;;;;;5098360;28;20028;-68
2020/12/24 03:41:14;;;;;;;18.63;8.45;;;128.80;2252.80;;;;;;5098351;28;20081;-67
2020/12/24 03:43:40;;;;;;;15.00;9.18;;;128.80;2252.80;;;;;;5098292;28;20038;-68
2020/12/24 03:46:06;;;;;;;22.02;8.63;;;128.90;2252.80;;;;;;5097957;28;20020;-68
2020/12/24 03:48:32;;;;;;;15.70;8.23;;;153.60;2252.80;;;;;;5098185;28;20368;-67
2020/12/24 03:50:57;;;;;;;13.43;8.55;;;153.70;2252.80;;;;;;5098136;28;20099;-68
2020/12/24 03:53:23;;;;;;;13.15;8.32;;;153.60;2252.80;;;;;;5097641;28;20035;-67
2020/12/24 03:55:49;;;;;;;17.02;8.05;;;128.90;2252.80;;;;;;5097800;28;20341;-68
2020/12/24 03:58:15;;;;;;;15.15;8.50;;;128.90;2252.80;;;;;;5098003;28;20028;-68
2020/12/24 04:00:41;;;;;;;16.70;9.02;;;128.90;2252.80;;;;;;5097985;28;20027;-68
2020/12/24 04:03:07;;;;;;;16.92;9.70;;;153.70;2252.80;;;;;;5097380;28;20482;-67
2020/12/24 04:05:33;;;;;;;16.38;9.35;;;153.70;2252.80;;;;;;5098182;28;20023;-67
2020/12/24 04:07:59;;;;;;;16.23;8.40;;;153.60;2252.80;;;;;;5097763;28;20034;-66
2020/12/24 04:10:25;;;;;;;15.18;9.25;;;153.70;2252.80;;;;;;5097437;28;20024;-67
2020/12/24 04:12:50;;;;;;;19.85;12.15;;;153.70;2252.80;;;;;;5097696;28;20089;-66
2020/12/24 04:15:16;;;;;;;19.98;11.63;;;153.70;2252.80;;;;;;5097507;28;20065;-67
2020/12/24 04:17:42;;;;;;;19.05;10.63;;;153.70;2252.80;;;;;;5097996;28;20053;-66
2020/12/24 04:20:09;;;;;;;24.80;14.07;;;153.70;2252.80;;;;;;5096944;28;20023;-68
2020/12/24 04:22:34;;;;;;;18.60;12.20;;;153.70;2252.80;;;;;;5097628;28;20020;-67
2020/12/24 04:25:01;;;;;;;24.63;14.98;;;153.80;2252.80;;;;;;5097867;28;20023;-66
2020/12/24 04:27:29;;;;;;;19.33;11.32;;;153.80;2252.80;;;;;;5097254;28;20077;-67
2020/12/24 04:29:54;;;;;;;17.87;10.80;;;153.80;2252.80;;;;;;5097308;28;20069;-68
2020/12/24 04:32:20;;;;;;;15.95;10.70;;;154.00;2252.80;;;;;;5097142;28;20451;-66
2020/12/24 04:34:46;;;;;;;17.15;11.32;;;153.90;2252.80;;;;;;5097384;28;20040;-66
2020/12/24 04:37:12;;;;;;;18.23;11.25;;;154.00;2252.80;;;;;;5097160;28;20024;-67
2020/12/24 04:39:38;;;;;;;23.08;13.70;;;153.90;2252.80;;;;;;5097404;28;20036;-66
2020/12/24 04:42:04;;;;;;;21.73;14.15;;;153.90;2252.80;;;;;;5097363;28;20020;-68
2020/12/24 04:44:31;;;;;;;19.63;10.45;;;154.00;2252.80;;;;;;5097433;28;20471;-66
2020/12/24 04:46:57;;;;;;;22.95;12.93;;;153.90;2252.80;;;;;;5097085;28;20115;-66
2020/12/24 04:49:30;;;;;;;21.27;12.27;;;153.70;2252.80;;;;;;5097640;28;20028;-67
2020/12/24 04:51:56;;;;;;;16.15;10.32;;;153.90;2252.80;;;;;;5097320;28;20026;-67
2020/12/24 04:54:22;;;;;;;15.55;9.75;;;153.90;2252.80;;;;;;5096949;28;20418;-67
2020/12/24 04:56:48;;;;;;;17.98;10.80;;;153.90;2252.80;;;;;;5096673;28;20384;-68
2020/12/24 04:59:18;;;;;;;21.02;11.45;;;153.70;2252.80;;;;;;5096528;28;20097;-67
2020/12/24 05:01:48;;;;;;;20.80;11.13;;;128.90;2252.80;;;;;;5097440;28;20028;-67
2020/12/24 05:04:17;;;;;;;22.17;11.18;;;128.90;2252.80;;;;;;5096740;28;20034;-66
2020/12/24 05:06:43;;;;;;;18.60;10.30;;;128.90;2252.80;;;;;;5096879;28;20028;-67
2020/12/24 05:09:10;;;;;;;18.52;11.75;;;128.90;2252.80;;;;;;5097133;28;20160;-65
2020/12/24 05:11:36;;;;;;;21.45;11.82;;;128.90;2252.80;;;;;;5096303;28;20073;-67
2020/12/24 05:14:25;;;;;;;19.40;11.48;;;153.60;2252.80;;;;;;5097003;28;20031;-66
2020/12/24 05:17:04;;;;;;;19.73;10.32;;;153.60;2252.80;;;;;;5097444;28;20123;-67
2020/12/24 05:19:34;;;;;;;21.90;11.60;;;153.60;2252.80;;;;;;5097129;28;20032;-66
2020/12/24 05:22:19;;;;;;;19.15;11.02;;;153.70;2252.80;;;;;;5097382;28;20020;-66
2020/12/24 05:24:45;;;;;;;35.83;19.58;;;153.70;2252.80;;;;;;5096745;28;20020;-66
2020/12/24 05:27:16;;;;;;;33.63;19.80;;;153.70;2252.80;;;;;;5096959;28;20028;-66
2020/12/24 05:29:44;;;;;;;322.23;158.80;;;153.70;2252.80;;;;;;5097304;28;20024;-66
2020/12/24 05:32:10;;;;;;;365.02;170.35;;;153.70;2252.80;;;;;;5098573;28;20139;-66
2020/12/24 05:34:37;;;;;;;693.65;390.33;;;153.60;2252.80;;;;;;5100969;28;20035;-67
2020/12/24 05:37:16;;;;;;;507.95;319.48;;;153.60;2252.80;;;;;;5101053;28;20026;-68
2020/12/24 05:39:44;;;;;;;107.95;70.07;;;153.80;2252.80;;;;;;5100429;28;20153;-67
2020/12/24 05:42:10;;;;;;;32.35;24.77;;;153.80;2252.80;;;;;;5100886;28;20123;-67
2020/12/24 05:44:36;;;;;;;29.80;22.95;;;153.70;2252.80;;;;;;5100870;28;20114;-66
2020/12/24 05:47:03;;;;;;;25.88;14.30;;;153.60;2252.80;;;;;;5100207;28;20028;-66
2020/12/24 05:49:29;;;;;;;22.05;10.95;;;153.60;2252.80;;;;;;5100821;28;20106;-67
2020/12/24 05:51:57;;;;;;;19.02;12.88;;;128.80;2252.80;;;;;;5100916;28;20054;-69
2020/12/24 05:54:24;;;;;;;20.83;11.93;;;128.80;2252.80;;;;;;5099827;28;20067;-66
2020/12/24 05:56:51;;;;;;;26.25;14.57;;;128.90;2252.80;;;;;;5100627;28;20110;-67
2020/12/24 05:59:19;;;;;;;54.17;31.70;;;128.80;2252.80;;;;;;5100637;28;20468;-66
2020/12/24 06:02:01;;;;;;;25.23;13.55;;;128.80;2252.80;;;;;;5099695;28;20020;-67
2020/12/24 06:04:58;;;;;;;20.65;13.57;;;128.70;2252.80;;;;;;5100217;28;20055;-68
2020/12/24 06:07:27;;;;;;;22.58;14.52;;;128.80;2252.80;;;;;;5099012;28;20391;-67
2020/12/24 06:09:53;;;;;;;34.60;25.17;;;128.90;2252.80;;;;;;5100152;28;20024;-68
2020/12/24 06:12:24;;;;;;;20.20;13.23;;;128.80;2252.80;;;;;;5100319;28;20024;-69
2020/12/24 06:15:03;;;;;;;23.08;12.40;;;128.70;2252.80;;;;;;5099187;28;20077;-68
2020/12/24 06:17:30;;;;;;;22.92;14.38;;;128.70;2252.80;;;;;;5100216;28;20439;-67
2020/12/24 06:19:56;;;;;;;35.60;20.42;;;128.70;2252.80;;;;;;5099948;28;20418;-66
2020/12/24 06:22:24;;;;;;;153.27;84.38;;;128.70;2252.80;;;;;;5098992;28;20015;-68
2020/12/24 06:24:58;;;;;;;40.67;23.00;;;128.80;2252.80;;;;;;5099852;28;20103;-67
2020/12/24 06:27:35;;;;;;;22.23;14.32;;;128.90;2252.80;;;;;;5099817;28;20119;-68
2020/12/24 06:30:05;;;;;;;18.77;11.43;;;128.80;2252.80;;;;;;5099444;28;20028;-67
2020/12/24 06:32:35;;;;;;;21.60;14.75;;;128.80;2252.80;;;;;;5099804;28;20047;-66
2020/12/24 06:35:02;;;;;;;25.38;17.77;;;128.90;2252.80;;;;;;5099904;28;20024;-67
2020/12/24 06:37:28;;;;;;;32.38;16.90;;;128.90;2252.80;;;;;;5099295;28;20103;-66
2020/12/24 06:39:54;;;;;;;34.20;16.88;;;128.90;2252.80;;;;;;5099186;28;20067;-67
2020/12/24 06:42:41;;;;;;;25.10;14.77;;;128.80;2252.80;;;;;;5098787;28;20028;-67
2020/12/24 06:45:31;;;;;;;23.25;14.50;;;128.80;2252.80;;;;;;5099658;28;20052;-66
2020/12/24 06:48:22;;;;;;;22.45;13.02;;;128.60;2252.80;;;;;;5098956;28;20086;-67
2020/12/24 06:51:05;;;;;;;23.00;13.60;;;128.80;2252.80;;;;;;5099051;28;20020;-66
2020/12/24 06:53:33;;;;;;;24.05;15.57;;;128.90;2252.80;;;;;;5099581;28;20077;-66
2020/12/24 06:56:15;;;;;;;25.73;14.63;;;153.70;2252.80;;;;;;5099277;28;20111;-69
2020/12/24 06:58:42;;;;;;;27.40;16.30;;;153.80;2252.80;;;;;;5099477;28;20111;-67
2020/12/24 07:01:17;;;;;;;28.80;17.25;;;153.90;2252.80;;;;;;5098508;28;20027;-67
2020/12/24 07:03:44;;;;;;;24.27;14.45;;;154.00;2252.80;;;;;;5098337;28;20031;-66
2020/12/24 07:06:10;;;;;;;30.45;15.93;;;153.90;2252.80;;;;;;5099311;28;20081;-66
2020/12/24 07:08:36;;;;;;;24.17;14.35;;;154.10;2252.80;;;;;;5098989;28;20024;-67
2020/12/24 07:11:03;;;;;;;31.17;18.95;;;154.10;2252.80;;;;;;5098638;28;20020;-69
2020/12/24 07:13:35;;;;;;;28.83;17.85;;;153.80;2252.80;;;;;;5098585;28;20122;-67
2020/12/24 07:16:02;;;;;;;28.00;17.40;;;154.10;2252.80;;;;;;5098905;28;20054;-67
2020/12/24 07:18:31;;;;;;;26.77;17.50;;;154.10;2252.80;;;;;;5098520;28;20031;-66
2020/12/24 07:21:05;;;;;;;26.88;16.33;;;154.10;2252.80;;;;;;5098182;28;20028;-66
2020/12/24 07:23:35;;;;;;;43.53;24.92;;;154.20;2252.80;;;;;;5098957;28;20043;-66
2020/12/24 07:26:06;;;;;;;54.72;28.73;;;154.50;2252.80;;;;;;5103320;28;20429;-66
2020/12/24 07:28:33;;;;;;;37.45;23.63;;;179.20;2252.80;;;;;;5098418;28;20023;-65
2020/12/24 07:31:01;;;;;;;31.10;19.77;;;154.50;2252.80;;;;;;5098584;28;20016;-66
2020/12/24 07:33:28;;;;;;;22.00;13.82;;;179.50;2252.80;;;;;;5097685;28;20052;-68
2020/12/24 07:35:54;;;;;;;26.48;15.68;;;179.50;2252.80;;;;;;5098726;28;20032;-67
2020/12/24 07:38:22;;;;;;;36.15;19.23;;;179.50;2252.80;;;;;;5097954;28;20028;-66
2020/12/24 07:40:48;;;;;;;45.42;21.92;;;179.50;2252.80;;;;;;5109036;28;20337;-68
2020/12/24 07:43:14;;;;;;;30.52;20.40;;;179.60;2252.80;;;;;;5108444;28;20027;-69
2020/12/24 07:45:42;;;;;;;24.15;16.48;;;179.70;2252.80;;;;;;5104213;28;20364;-69
2020/12/24 07:48:13;;;;;;;28.77;18.93;;;179.80;2252.80;;;;;;5107039;28;20420;-69
2020/12/24 07:50:38;;;;;;;29.58;20.58;;;180.00;2252.80;;;;;;5106647;28;20020;-68
2020/12/24 07:53:05;;;;;;;22.48;16.65;;;204.80;2252.80;;;;;;5105637;28;20356;-69
2020/12/24 07:55:31;;;;;;;27.50;19.55;;;180.10;2252.80;;;;;;5105728;28;20336;-66
2020/12/24 07:58:10;;;;;;;19.92;12.50;;;204.80;2252.80;;;;;;5108028;28;20023;-69
2020/12/24 08:00:39;;;;;;;;;;;205.00;2252.80;;;;;;5110412;28;20023;-69
2020/12/24 08:03:05;;;;;;;22.48;13.00;;;205.10;2252.80;;;;;;5118044;28;19911;-67
2020/12/24 08:05:31;;;;;;;24.35;14.02;;;205.10;2252.80;;;;;;5118210;28;20409;-66
2020/12/24 08:07:56;;;;;;;25.33;17.52;;;205.30;2252.80;;;;;;5117788;28;20100;-68
2020/12/24 08:10:22;;;;;;;29.42;19.98;;;205.50;2227.20;;;;;;5118062;28;20413;-68
2020/12/24 08:12:49;;;;;;;23.10;14.68;;;205.50;2227.20;;;;;;5118278;28;20020;-68
2020/12/24 08:15:17;;;;;;;24.80;14.52;;;205.50;2227.20;;;;;;5117775;28;20063;-67
2020/12/24 08:17:58;;;;;;;37.13;22.23;;;205.60;2227.20;;;;;;5118087;28;20031;-67
2020/12/24 08:20:32;;;;;;;28.95;17.70;;;230.60;2176.00;;;;;;5117854;28;20031;-67
2020/12/24 08:23:09;;;;;;;24.33;14.75;;;230.40;2201.60;;;;;;5118294;28;20019;-68
2020/12/24 08:25:35;;;;;;;22.35;14.45;;;205.70;2176.00;;;;;;5117973;28;20027;-67
2020/12/24 08:28:03;;;;;;;24.23;14.52;;;230.60;2176.00;;;;;;5117963;28;20023;-68
2020/12/24 08:30:28;;;;;;;24.90;16.08;;;230.40;2201.60;;;;;;5118217;28;20064;-68
2020/12/24 08:32:55;;;;;;;25.17;13.45;;;230.60;2176.00;;;;;;5118305;28;20059;-68
2020/12/24 08:35:21;;;;;;;22.77;13.95;;;230.70;2176.00;;;;;;5117578;28;20020;-68
2020/12/24 08:37:47;;;;;;;21.17;13.43;;;230.80;2150.40;;;;;;5118113;28;20031;-67
2020/12/24 08:40:21;;;;;;;27.35;15.35;;;230.80;2150.40;;;;;;5117763;28;20341;-68
2020/12/24 08:42:48;;;;;;;24.10;13.98;;;231.10;2150.40;;;;;;5117694;28;20104;-67
2020/12/24 08:45:14;;;;;;;27.55;13.65;;;231.10;2124.80;;;;;;5117390;28;20034;-68
2020/12/24 08:47:40;;;;;;;29.40;14.45;;;256.10;2073.60;;;;;;5117494;28;20106;-68
2020/12/24 08:50:06;;;;;;;35.85;20.15;;;256.40;2048.00;;;;;;5117483;28;20400;-68
2020/12/24 08:52:37;;;;;;;38.30;22.42;;;256.60;2022.40;;;;;;5117688;28;20030;-67
2020/12/24 08:55:07;;;;;;;44.63;21.88;;;256.40;2048.00;;;;;;5117428;28;20445;-67
2020/12/24 08:57:34;;;;;;;34.38;17.38;;;256.50;2022.40;;;;;;5117278;28;20024;-67
2020/12/24 09:00:03;;;;;;;42.28;20.73;;;256.50;2022.40;;;;;;5117647;28;20110;-67
2020/12/24 09:02:32;;;;;;;42.63;24.73;;;256.60;2022.40;;;;;;5117623;28;20122;-68
2020/12/24 09:05:00;;;;;;;37.28;19.38;;;256.40;2048.00;;;;;;5117749;28;20038;-68
2020/12/24 09:07:28;;;;;;;29.95;17.92;;;256.40;2073.60;;;;;;5122004;28;20042;-68
2020/12/24 09:10:26;;;;;;;24.43;14.33;;;256.80;1996.80;;;;;;5121111;28;20039;-67
2020/12/24 09:13:02;;;;;;;23.58;12.90;;;281.60;1996.80;;;;;;5121733;28;20042;-67
2020/12/24 09:15:28;;;;;;;22.67;12.70;;;281.60;1996.80;;;;;;5121866;28;20027;-67
2020/12/24 09:17:58;;;;;;;23.98;12.40;;;281.80;1971.20;;;;;;5121244;28;20030;-66
2020/12/24 09:20:26;;;;;;;19.42;12.80;;;282.10;1971.20;;;;;;5121509;28;20024;-69
2020/12/24 09:22:54;;;;;;;22.20;11.38;;;282.00;1971.20;;;;;;5120895;28;20356;-67
2020/12/24 09:25:42;;;;;;;22.77;13.43;;;281.90;1971.20;;;;;;5121121;28;20031;-67
2020/12/24 09:28:23;;;;;;;23.48;14.38;;;281.90;1945.60;;;;;;5121675;28;20131;-67
2020/12/24 09:30:51;;;;;;;27.50;18.67;;;281.90;1971.20;;;;;;5120794;28;20439;-68
2020/12/24 09:33:17;;;;;;;26.70;15.45;;;282.20;1945.60;;;;;;5121590;28;20055;-68
2020/12/24 09:35:44;;;;;;;28.35;15.60;;;282.30;1920.00;;;;;;5120316;28;20510;-67
2020/12/24 09:38:10;;;;;;;27.40;17.17;;;282.50;1920.00;;;;;;5120783;28;20035;-68
2020/12/24 09:40:38;;;;;;;28.67;18.10;;;282.40;1945.60;;;;;;5120685;28;20152;-67
2020/12/24 09:43:04;;;;;;;26.33;15.00;;;282.40;1971.20;;;;;;5119981;28;20447;-67
2020/12/24 09:45:30;;;;;;;27.48;15.60;;;307.20;1945.60;;;;;;5120795;28;20102;-67
2020/12/24 09:47:57;;;;;;;28.65;14.52;;;307.20;1920.00;;;;;;5121028;28;20445;-68
2020/12/24 09:50:24;;;;;;;38.95;21.15;;;307.50;1920.00;;;;;;5120639;28;20102;-67
2020/12/24 09:52:50;;;;;;;38.65;16.95;;;307.70;1894.40;;;;;;5116641;28;20027;-69
2020/12/24 09:55:16;;;;;;;32.38;14.20;;;307.80;1920.00;;;;;;5114609;27;20055;-69
2020/12/24 09:57:42;;;;;;;51.97;16.58;;;307.80;1894.40;;;;;;5118945;28;20058;-69
2020/12/24 10:00:09;;;;;;;35.45;14.98;;;307.90;1868.80;;;;;;5119808;28;20028;-69
2020/12/24 10:02:39;;;;;;;34.40;13.23;;;308.00;1868.80;;;;;;5119589;28;20020;-67
2020/12/24 10:05:06;;;;;;;30.70;13.18;;;307.80;1894.40;;;;;;5118686;27;20501;-70
2020/12/24 10:07:32;;;;;;;32.58;12.95;;;307.80;1894.40;;;;;;5119899;28;20043;-68
2020/12/24 10:09:58;;;;;;;40.30;15.32;;;308.00;1868.80;;;;;;5120647;28;20397;-67
2020/12/24 10:12:27;;;;;;;31.42;13.70;;;332.80;1894.40;;;;;;5119729;28;20035;-70
2020/12/24 10:14:55;;;;;;;40.47;12.80;;;333.00;1868.80;;;;;;5119925;28;20041;-67
2020/12/24 10:17:22;;;;;;;22.55;11.50;;;333.10;1868.80;;;;;;5118280;28;20019;-68
2020/12/24 10:19:48;;;;;;;25.48;12.98;;;333.10;1868.80;;;;;;5119946;28;20019;-70
2020/12/24 10:22:14;;;;;;;19.67;11.57;;;333.40;1843.20;;;;;;5119017;27;20034;-70
2020/12/24 10:24:43;;;;;;;19.65;10.65;;;333.70;1817.60;;;;;;5119812;28;20027;-68
2020/12/24 10:27:09;;;;;;;23.90;14.82;;;358.40;1792.00;;;;;;5119629;28;20073;-67
2020/12/24 10:29:36;;;;;;;41.25;22.80;;;358.50;1792.00;;;;;;5117719;27;20114;-68
2020/12/24 10:32:03;;;;;;;35.97;20.90;;;358.80;1766.40;;;;;;5119531;27;20447;-67
2020/12/24 10:34:28;;;;;;;62.67;33.60;;;359.00;1766.40;;;;;;5119258;28;20032;-68
2020/12/24 10:36:59;;;;;;;79.68;39.00;;;359.20;1715.20;;;;;;5117348;28;20031;-67
2020/12/24 10:39:25;;;;;;;73.38;31.92;;;359.20;1740.80;;;;;;5120067;28;20437;-68
2020/12/24 10:41:51;;;;;;;48.67;24.30;;;384.00;1740.80;;;;;;5119311;28;20055;-68
2020/12/24 10:44:17;;;;;;;27.58;14.77;;;359.10;1740.80;;;;;;5119773;28;20023;-67
2020/12/24 10:46:43;;;;;;;18.00;10.75;;;358.80;1740.80;;;;;;5119710;28;20100;-67
2020/12/24 10:49:09;;;;;;;22.73;11.50;;;358.90;1766.40;;;;;;5119085;28;20401;-68
2020/12/24 10:51:35;;;;;;;16.38;9.85;;;384.00;1740.80;;;;;;5119075;28;20055;-68
2020/12/24 10:54:01;;;;;;;16.52;9.32;;;384.10;1715.20;;;;;;5117941;27;20055;-66
2020/12/24 10:56:27;;;;;;;14.10;9.13;;;384.20;1715.20;;;;;;5118082;28;20034;-65
2020/12/24 10:58:54;;;;;;;15.85;9.07;;;384.70;1664.00;;;;;;5115293;28;20024;-66
2020/12/24 11:01:20;;;;;;;12.93;8.45;;;384.50;1664.00;;;;;;5106211;28;20089;-65
2020/12/24 11:03:46;;;;;;;16.90;8.98;;;384.70;1664.00;;;;;;5110396;28;20028;-70
2020/12/24 11:06:18;;;;;;;16.52;8.13;;;384.60;1664.00;;;;;;5104210;28;20024;-65
2020/12/24 11:08:43;;;;;;;21.63;9.18;;;384.40;1638.40;;;;;;5108415;28;20020;-68
2020/12/24 11:11:10;;;;;;;17.10;10.13;;;384.40;1664.00;;;;;;5107213;28;20103;-68
2020/12/24 11:13:35;;;;;;;34.63;16.63;;;384.80;1612.80;;;;;;5107426;28;20023;-69
2020/12/24 11:16:01;;;;;;;26.83;13.52;;;384.30;1664.00;;;;;;5106752;28;20084;-65
2020/12/24 11:18:27;;;;;;;63.53;29.10;;;359.10;1689.60;;;;;;5109414;28;20375;-69
2020/12/24 11:20:56;;;;;;;36.65;20.48;;;359.10;1715.20;;;;;;5105692;28;20466;-70
2020/12/24 11:23:25;;;;;;;40.00;23.35;;;359.30;1689.60;;;;;;5105022;28;20055;-69
2020/12/24 11:25:51;;;;;;;65.20;31.00;;;359.30;1715.20;;;;;;5103321;28;20452;-68
2020/12/24 11:28:17;;;;;;;35.30;18.77;;;359.30;1715.20;;;;;;5117100;28;20024;-68
2020/12/24 11:30:43;;;;;;;39.00;19.50;;;359.10;1715.20;;;;;;5118403;27;20302;-67
2020/12/24 11:33:08;;;;;;;36.17;19.27;;;359.10;1715.20;;;;;;5117968;28;20062;-67
2020/12/24 11:35:34;;;;;;;68.82;36.00;;;358.80;1740.80;;;;;;5118943;28;20034;-68
2020/12/24 11:38:00;;;;;;;35.13;17.70;;;358.50;1740.80;;;;;;5118779;27;20031;-68
2020/12/24 11:40:26;;;;;;;27.70;16.08;;;358.40;1766.40;;;;;;5118351;28;20408;-67
2020/12/24 11:42:52;;;;;;;45.72;23.83;;;333.70;1766.40;;;;;;5118613;28;20034;-68
2020/12/24 11:45:17;;;;;;;47.28;22.10;;;358.40;1766.40;;;;;;5118292;28;20405;-68
2020/12/24 11:47:43;;;;;;;53.92;26.98;;;358.50;1766.40;;;;;;5117629;28;20135;-70
2020/12/24 11:50:09;;;;;;;35.70;19.67;;;358.40;1792.00;;;;;;5118147;28;20051;-66
2020/12/24 11:52:36;;;;;;;46.55;24.02;;;358.40;1766.40;;;;;;5118360;28;20416;-69
2020/12/24 11:55:04;;;;;;;24.10;12.88;;;358.40;1792.00;;;;;;5116897;28;20082;-67
2020/12/24 11:57:30;;;;;;;21.83;13.70;;;333.70;1766.40;;;;;;5117120;28;20023;-68
2020/12/24 11:59:56;;;;;;;26.02;12.85;;;333.70;1792.00;;;;;;5118550;28;20040;-69
2020/12/24 12:02:22;;;;;;;22.73;12.98;;;333.70;1792.00;;;;;;5118258;28;20317;-69
2020/12/24 12:04:47;;;;;;;24.38;14.35;;;333.70;1766.40;;;;;;5117810;28;20035;-68